Terminal Aerodrome Forecast
Issued by NWS

Home | Current Version | Previous Version | Text Only | Print | Product List | Glossary On
Versions: 1 2 3 4 5 6 7 8 9 10 11 12 13 14 15 16 17 18 19 20 21 22 23 24
000
FTUS45 KLKN 051124
TAFEKO
TAF
KEKO 051124Z 0512/0612 06005KT P6SM FEW080 BKN120
     FM052100 24010KT P6SM VCTS SCT080CB BKN120
      TEMPO 0522/0524 VRB20G35KT BKN060CB OVC100
     FM060200 28010KT P6SM SCT100 OVC200
     FM060600 06012KT P6SM FEW100 BKN200=

USA.gov is the U.S. government's official web portal to all federal, state and local government web resources and services.